Time;durP1;ratioP1;P1;durP2;ratioP2;P2;SDS_P1;SDS_P2;PMS_P1;PMS_P2;Temp;Humidity;BMP_temperature;BMP_pressure;BME280_temperature;BME280_humidity;BME280_pressure;Samples;Min_cycle;Max_cycle;Signal;HPM_P1;HPM_P2
2022/05/30 00:01:52;;;;;;;9.58;7.35;;;;;;;11.00;75.89;99805.15;1813798;78;35307;-68
2022/05/30 00:04:20;;;;;;;14.50;8.48;;;;;;;11.16;75.87;99828.41;1813594;79;26088;-69
2022/05/30 00:06:46;;;;;;;12.68;8.23;;;;;;;10.99;75.94;99792.73;1775975;80;27685;-68
2022/05/30 00:09:15;;;;;;;11.20;8.15;;;;;;;11.00;75.92;99789.48;1774952;80;32929;-68
2022/05/30 00:11:42;;;;;;;10.13;8.07;;;;;;;10.99;75.84;99790.59;1776359;80;25756;-68
2022/05/30 00:14:08;;;;;;;10.70;8.25;;;;;;;10.98;75.97;99787.63;1776561;80;25496;-68
2022/05/30 00:16:34;;;;;;;12.10;8.13;;;;;;;10.98;75.98;99784.39;1776631;80;25442;-67
2022/05/30 00:19:04;;;;;;;12.95;8.50;;;;;;;10.98;75.97;99780.33;1776748;80;27448;-68
2022/05/30 00:21:31;;;;;;;16.62;8.63;;;;;;;10.99;76.01;99774.34;1773230;80;25505;-67
2022/05/30 00:23:57;;;;;;;13.68;8.58;;;;;;;10.98;76.13;99776.27;1776598;80;25482;-67
2022/05/30 00:26:24;;;;;;;15.30;8.43;;;;;;;10.98;76.02;99775.45;1776528;80;26206;-67
2022/05/30 00:28:51;;;;;;;13.43;7.80;;;;;;;10.97;76.12;99777.38;1776612;80;26790;-68
2022/05/30 00:31:19;;;;;;;11.28;8.03;;;;;;;10.96;76.06;99773.64;1776642;80;27588;-68
2022/05/30 00:33:48;;;;;;;13.03;8.35;;;;;;;10.97;76.18;99777.95;1775970;80;25692;-68
2022/05/30 00:36:14;;;;;;;11.30;7.62;;;;;;;10.97;76.30;99779.30;1776569;80;25459;-67
2022/05/30 00:38:41;;;;;;;10.58;7.70;;;;;;;10.96;76.30;99772.28;1808901;78;26334;-68
2022/05/30 00:41:08;;;;;;;12.78;8.10;;;;;;;10.96;76.41;99771.72;1814128;78;25362;-68
2022/05/30 00:43:38;;;;;;;13.65;9.18;;;;;;;10.96;76.42;99769.58;1814143;79;27452;-68
2022/05/30 00:46:12;;;;;;;12.20;7.67;;;;;;;10.96;76.40;99765.52;1814241;78;25438;-68
2022/05/30 00:48:54;;;;;;;13.28;8.98;;;;;;;10.95;76.41;99766.66;1814253;78;25597;-68
2022/05/30 00:51:28;;;;;;;13.15;8.10;;;;;;;10.95;76.46;99766.66;1798607;77;26231;-67
2022/05/30 00:53:57;;;;;;;15.30;8.78;;;;;;;10.95;76.50;99763.95;1808182;77;25658;-67
2022/05/30 00:56:29;;;;;;;14.00;8.43;;;;;;;10.94;76.47;99760.44;1814313;78;27439;-67
2022/05/30 00:58:57;;;;;;;11.78;7.97;;;;;;;10.94;76.59;99765.05;1814097;78;25476;-68
2022/05/30 01:01:25;;;;;;;12.13;8.33;;;;;;;10.92;76.57;99751.84;1814163;79;25366;-68
2022/05/30 01:06:45;;;;;;;11.15;8.48;;;;;;;10.92;76.65;99749.14;1814421;79;25364;-66
2022/05/30 01:09:22;;;;;;;13.00;8.80;;;;;;;10.92;76.77;99744.30;1814387;78;27453;-68
2022/05/30 01:11:59;;;;;;;11.83;8.03;;;;;;;10.91;76.74;99743.48;1814273;78;27084;-68
2022/05/30 01:14:36;;;;;;;12.58;8.65;;;;;;;10.92;76.85;99741.03;1814445;78;25513;-68
2022/05/30 01:17:11;;;;;;;9.93;7.95;;;;;;;10.91;76.79;99738.08;1814375;79;25712;-68
2022/05/30 01:20:07;;;;;;;14.47;8.75;;;;;;;10.91;76.89;99727.82;1814470;79;25563;-68
2022/05/30 01:22:58;;;;;;;10.30;8.73;;;;;;;10.90;76.81;99725.68;1814261;78;27546;-68
2022/05/30 01:25:50;;;;;;;13.10;9.33;;;;;;;10.89;76.85;99728.70;1813567;79;25415;-69
2022/05/30 01:29:03;;;;;;;12.58;9.08;;;;;;;10.90;76.96;99731.66;1814157;78;25360;-68
2022/05/30 01:31:30;;;;;;;11.55;8.05;;;;;;;10.89;77.27;99734.13;1814321;78;25538;-68
2022/05/30 01:33:57;;;;;;;10.80;9.25;;;;;;;10.88;77.31;99725.76;1814342;78;25524;-68
2022/05/30 01:36:28;;;;;;;11.10;8.20;;;;;;;10.87;77.32;99717.42;1814308;78;28145;-68
2022/05/30 01:38:55;;;;;;;12.35;8.03;;;;;;;10.87;77.44;99717.42;1814263;78;25899;-68
2022/05/30 01:41:22;;;;;;;13.28;8.85;;;;;;;10.88;77.74;99716.28;1814335;78;25522;-68
2022/05/30 01:43:49;;;;;;;12.30;8.70;;;;;;;10.88;77.66;99713.58;1814287;79;25788;-69
2022/05/30 01:46:21;;;;;;;13.62;8.30;;;;;;;10.87;77.78;99710.09;1814322;78;25716;-69
2022/05/30 01:48:50;;;;;;;12.18;8.70;;;;;;;10.88;77.80;99698.70;1814333;79;27621;-67
2022/05/30 01:51:19;;;;;;;11.18;7.95;;;;;;;10.88;77.74;99701.41;1814168;78;25595;-69
2022/05/30 01:53:47;;;;;;;;;;;;;;;10.87;77.77;99701.19;1817040;78;25535;-68
2022/05/30 01:56:14;;;;;;;13.13;8.00;;;;;;;10.89;78.06;99700.30;1803248;79;25673;-68
2022/05/30 01:58:42;;;;;;;14.07;9.20;;;;;;;10.87;77.92;99691.16;1814351;78;25608;-69
2022/05/30 02:01:21;;;;;;;11.70;8.58;;;;;;;10.87;77.85;99692.50;1814312;79;27450;-69
2022/05/30 02:03:49;;;;;;;;;;;;;;;10.87;78.19;99694.42;1816945;78;25542;-69
2022/05/30 02:06:16;;;;;;;11.00;7.92;;;;;;;10.87;78.19;99689.80;1814257;79;25380;-69
2022/05/30 02:08:43;;;;;;;9.70;8.13;;;;;;;10.86;78.12;99694.97;1814214;78;26131;-69
2022/05/30 02:11:10;;;;;;;11.08;8.10;;;;;;;10.86;78.23;99688.20;1814371;78;25616;-68
2022/05/30 02:13:38;;;;;;;14.20;8.05;;;;;;;10.85;78.26;99692.05;1814411;78;27479;-68
2022/05/30 02:18:56;;;;;;;11.15;8.13;;;;;;;10.84;78.35;99693.97;1814273;79;25450;-68
2022/05/30 02:21:22;;;;;;;13.75;8.60;;;;;;;10.85;78.25;99694.75;1814322;78;26670;-68
2022/05/30 02:23:49;;;;;;;14.07;8.68;;;;;;;10.84;78.47;99698.56;1814363;78;25431;-68
2022/05/30 02:26:15;;;;;;;13.30;8.93;;;;;;;10.82;78.52;99705.65;1814264;78;28193;-68
2022/05/30 02:28:41;;;;;;;12.23;7.95;;;;;;;10.81;78.35;99703.27;1814065;78;25531;-69
2022/05/30 02:31:08;;;;;;;12.30;7.97;;;;;;;10.78;78.51;99703.37;1814433;79;25430;-68
2022/05/30 02:39:04;;;;;;;8.83;7.67;;;;;;;10.74;79.28;99703.77;1814368;79;27515;-69
2022/05/30 02:41:30;;;;;;;10.93;7.80;;;;;;;10.70;79.38;99709.59;1814226;78;25510;-69
2022/05/30 02:43:59;;;;;;;9.55;7.58;;;;;;;10.65;79.61;99711.91;1814233;78;25520;-68
2022/05/30 02:46:27;;;;;;;12.35;7.90;;;;;;;10.62;79.64;99711.23;1814460;78;25527;-68
2022/05/30 02:48:55;;;;;;;11.97;7.87;;;;;;;10.58;80.59;99704.86;1814261;78;25537;-69
2022/05/30 02:51:22;;;;;;;10.07;7.37;;;;;;;10.54;80.50;99707.98;1814571;78;27435;-66
2022/05/30 02:53:52;;;;;;;9.10;7.03;;;;;;;10.47;80.69;99707.67;1814234;79;26025;-68
2022/05/30 02:56:19;;;;;;;9.83;7.55;;;;;;;10.45;80.99;99708.55;1816544;78;25372;-68
2022/05/30 02:58:46;;;;;;;10.43;7.47;;;;;;;10.42;81.34;99719.47;1814184;78;25581;-67
2022/05/30 03:01:16;;;;;;;8.95;7.25;;;;;;;10.42;81.60;99720.82;1814301;79;25395;-67
2022/05/30 03:03:44;;;;;;;8.60;6.97;;;;;;;10.41;81.73;99723.28;1814391;78;27528;-67
2022/05/30 03:06:11;;;;;;;9.05;7.25;;;;;;;10.42;81.99;99726.23;1814167;79;25581;-67
2022/05/30 03:08:38;;;;;;;13.03;7.45;;;;;;;10.42;82.11;99727.58;1814231;78;25392;-67
2022/05/30 03:11:04;;;;;;;7.72;6.87;;;;;;;10.41;82.37;99720.57;1814265;78;25541;-67
2022/05/30 03:13:30;;;;;;;13.62;8.00;;;;;;;10.39;82.41;99724.73;1814233;79;25360;-68
2022/05/30 03:15:58;;;;;;;9.43;7.33;;;;;;;10.38;82.69;99717.16;1814258;78;28137;-68
2022/05/30 03:18:26;;;;;;;10.43;8.10;;;;;;;10.37;82.74;99718.28;1814239;79;25541;-69
2022/05/30 03:20:53;;;;;;;8.78;7.40;;;;;;;10.36;83.06;99706.44;1814220;79;25560;-66
2022/05/30 03:23:20;;;;;;;9.58;6.90;;;;;;;10.36;83.25;99706.44;1814261;78;25774;-67
2022/05/30 03:25:46;;;;;;;9.28;7.12;;;;;;;10.35;83.35;99719.17;1814266;78;25436;-67
2022/05/30 03:28:12;;;;;;;11.00;6.85;;;;;;;10.35;83.63;99717.00;1814066;78;28116;-67
2022/05/30 03:30:38;;;;;;;9.60;7.28;;;;;;;10.34;83.77;99722.98;1814158;78;32736;-67
2022/05/30 03:33:06;;;;;;;8.50;7.03;;;;;;;10.32;83.92;99725.22;1814175;78;25506;-67
2022/05/30 03:35:34;;;;;;;10.08;7.92;;;;;;;10.31;84.07;99723.58;1814166;79;25596;-66
2022/05/30 03:38:01;;;;;;;7.53;6.75;;;;;;;10.30;84.25;99730.12;1814240;78;25559;-67
2022/05/30 03:40:27;;;;;;;8.93;7.25;;;;;;;10.28;84.37;99735.84;1814230;78;27439;-67
2022/05/30 03:42:53;;;;;;;9.20;6.97;;;;;;;10.28;84.65;99743.14;1814105;78;25593;-67
2022/05/30 03:45:20;;;;;;;11.45;7.92;;;;;;;10.28;84.94;99743.95;1814247;78;25521;-66
2022/05/30 03:47:48;;;;;;;9.40;8.25;;;;;;;10.31;85.03;99737.09;1814171;78;26153;-66
2022/05/30 03:50:19;;;;;;;10.95;8.33;;;;;;;10.34;85.04;99737.84;1814227;78;25573;-66
2022/05/30 03:52:46;;;;;;;9.08;8.05;;;;;;;10.38;85.40;99732.59;1814327;78;27499;-66
2022/05/30 03:55:16;;;;;;;14.23;9.73;;;;;;;10.40;85.46;99719.54;1814096;78;25583;-66
2022/05/30 03:57:43;;;;;;;16.07;9.03;;;;;;;10.43;85.42;99713.49;1814192;78;25390;-67
2022/05/30 04:00:20;;;;;;;14.98;10.28;;;;;;;10.43;85.58;99718.34;1814132;78;26150;-67
2022/05/30 04:02:49;;;;;;;10.38;9.38;;;;;;;10.45;85.50;99724.23;1813680;78;25613;-67
2022/05/30 04:05:18;;;;;;;13.15;10.30;;;;;;;10.46;85.67;99727.16;1814308;78;27546;-67
2022/05/30 04:07:45;;;;;;;15.78;11.35;;;;;;;10.49;85.66;99720.87;1814377;78;25602;-67
2022/05/30 04:10:12;;;;;;;11.20;9.88;;;;;;;10.52;85.72;99713.47;1814158;79;25537;-66
2022/05/30 04:12:39;;;;;;;14.90;10.48;;;;;;;10.54;85.72;99721.51;1814161;78;25602;-66
2022/05/30 04:15:10;;;;;;;12.33;9.63;;;;;;;10.57;85.90;99720.05;1814212;79;25576;-67
2022/05/30 04:17:37;;;;;;;10.80;9.30;;;;;;;10.59;86.04;99727.28;1803027;79;27444;-66
2022/05/30 04:20:06;;;;;;;17.07;10.53;;;;;;;10.61;86.23;99724.50;1814054;78;25642;-66
2022/05/30 04:22:34;;;;;;;14.23;9.88;;;;;;;10.64;86.20;99733.33;1814321;78;25380;-66
2022/05/30 04:25:01;;;;;;;12.45;11.12;;;;;;;10.68;86.66;99735.39;1814201;78;26298;-67
2022/05/30 04:27:27;;;;;;;16.57;12.53;;;;;;;10.70;86.67;99731.23;1814178;78;25559;-67
2022/05/30 04:29:53;;;;;;;19.62;13.53;;;;;;;10.73;86.88;99732.52;1809029;78;27166;-66
2022/05/30 04:32:19;;;;;;;15.18;12.43;;;;;;;10.75;86.84;99724.87;1807185;79;25819;-66
2022/05/30 04:34:46;;;;;;;15.80;11.65;;;;;;;10.77;86.89;99730.17;1808758;78;25385;-67
2022/05/30 04:37:13;;;;;;;14.03;11.30;;;;;;;10.79;86.94;99731.98;1808701;79;26222;-67
2022/05/30 04:39:39;;;;;;;14.60;11.75;;;;;;;10.83;86.87;99741.63;1808873;78;25778;-67
2022/05/30 04:42:07;;;;;;;16.42;12.55;;;;;;;10.84;87.11;99738.61;1809096;78;27495;-68
2022/05/30 04:44:35;;;;;;;14.98;12.30;;;;;;;10.87;87.12;99736.36;1808950;79;25423;-67
2022/05/30 04:47:02;;;;;;;13.60;12.20;;;;;;;10.88;87.31;99737.39;1809001;78;25643;-68
2022/05/30 04:49:28;;;;;;;15.58;12.53;;;;;;;10.90;87.37;99740.56;1808847;79;25558;-68
2022/05/30 04:51:54;;;;;;;14.83;12.88;;;;;;;10.92;87.26;99735.61;1809075;78;25600;-68
2022/05/30 04:54:24;;;;;;;15.00;12.33;;;;;;;10.93;87.33;99728.28;1809121;78;28194;-68
2022/05/30 04:56:51;;;;;;;18.00;11.93;;;;;;;10.96;87.22;99735.75;1808962;78;25982;-68
2022/05/30 04:59:18;;;;;;;17.77;11.63;;;;;;;10.97;87.37;99734.08;1809048;78;25186;-68
2022/05/30 05:01:45;;;;;;;13.65;11.57;;;;;;;10.97;87.42;99734.65;1809006;78;27624;-68
2022/05/30 05:04:11;;;;;;;39.48;24.90;;;;;;;10.98;87.58;99728.91;1809044;79;25646;-68
2022/05/30 05:06:39;;;;;;;22.87;15.13;;;;;;;11.00;87.58;99727.23;1809103;78;27509;-68
2022/05/30 05:09:26;;;;;;;15.00;12.45;;;;;;;11.01;87.46;99722.05;1797488;79;25365;-68
2022/05/30 05:11:52;;;;;;;12.98;11.60;;;;;;;11.02;87.57;99720.94;1808543;78;25546;-67
2022/05/30 05:14:18;;;;;;;13.85;11.85;;;;;;;11.03;87.54;99723.32;1808578;78;35239;-67
2022/05/30 05:16:45;;;;;;;15.55;11.73;;;;;;;11.06;87.65;99727.84;1808724;78;25595;-67
2022/05/30 05:19:11;;;;;;;13.45;11.48;;;;;;;11.08;87.74;99721.53;1808698;78;28249;-68
2022/05/30 05:21:40;;;;;;;15.65;11.93;;;;;;;11.08;87.74;99727.73;1808519;78;25637;-68
2022/05/30 05:24:09;;;;;;;15.58;11.65;;;;;;;11.10;87.75;99725.52;1797594;79;25700;-68
2022/05/30 05:26:35;;;;;;;14.40;10.98;;;;;;;11.11;87.76;99718.97;1808791;78;25529;-68
2022/05/30 05:29:02;;;;;;;12.10;10.88;;;;;;;11.13;87.63;99724.06;1772626;80;25406;-68
2022/05/30 05:31:34;;;;;;;12.18;10.48;;;;;;;11.13;87.43;99724.06;1753867;80;27573;-68
2022/05/30 05:34:05;;;;;;;12.93;9.78;;;;;;;11.13;87.48;99722.70;1729198;81;25888;-68
2022/05/30 05:36:36;;;;;;;11.38;9.65;;;;;;;11.13;87.50;99710.52;1763548;80;25733;-66
2022/05/30 05:39:03;;;;;;;11.45;9.58;;;;;;;11.12;87.56;99705.69;1764104;81;25601;-68
2022/05/30 05:41:30;;;;;;;12.45;9.23;;;;;;;11.13;87.68;99711.31;1764171;80;25468;-68
2022/05/30 05:43:59;;;;;;;10.50;9.45;;;;;;;11.15;87.71;99702.87;1764299;81;28181;-67
2022/05/30 05:46:29;;;;;;;16.05;11.15;;;;;;;11.15;87.68;99701.52;1764036;80;25604;-67
2022/05/30 05:48:57;;;;;;;12.10;9.50;;;;;;;11.16;87.75;99694.99;1764119;80;25632;-68
2022/05/30 05:51:25;;;;;;;12.33;8.65;;;;;;;11.18;87.99;99700.30;1764328;81;25702;-68
2022/05/30 05:53:53;;;;;;;13.15;9.13;;;;;;;11.22;88.39;99701.81;1764467;81;25627;-67
2022/05/30 05:56:28;;;;;;;11.55;8.35;;;;;;;11.25;88.39;99694.94;1764432;80;27566;-67
2022/05/30 05:58:55;;;;;;;10.60;9.45;;;;;;;11.28;88.46;99687.52;1764325;80;25619;-68
2022/05/30 06:01:26;;;;;;;17.15;11.22;;;;;;;11.31;88.62;99682.23;1764432;81;25464;-68
2022/05/30 06:03:56;;;;;;;16.15;10.03;;;;;;;11.35;88.50;99686.44;1764404;81;25670;-67
2022/05/30 06:06:26;;;;;;;10.55;8.45;;;;;;;11.36;88.61;99680.69;1764469;81;25400;-68
2022/05/30 06:09:01;;;;;;;8.75;7.85;;;;;;;11.43;88.54;99688.86;1764494;80;27475;-68
2022/05/30 06:11:28;;;;;;;10.63;8.13;;;;;;;11.47;88.70;99687.07;1763281;80;25614;-67
2022/05/30 06:13:55;;;;;;;9.93;7.53;;;;;;;11.51;88.66;99683.92;1736133;80;25635;-68
2022/05/30 06:16:27;;;;;;;10.58;7.72;;;;;;;11.53;88.43;99689.26;1734031;81;25506;-69
2022/05/30 06:18:58;;;;;;;8.35;7.55;;;;;;;11.57;88.64;99683.41;1734128;82;25632;-68
2022/05/30 06:21:27;;;;;;;9.93;7.85;;;;;;;11.63;88.69;99695.39;1734003;82;27458;-68
2022/05/30 06:23:56;;;;;;;9.00;8.05;;;;;;;11.67;88.99;99686.28;1734050;82;25873;-69
2022/05/30 06:26:25;;;;;;;9.35;8.43;;;;;;;11.71;88.70;99693.18;1734055;82;25592;-68
2022/05/30 06:28:57;;;;;;;9.10;8.18;;;;;;;11.80;89.29;99693.92;1734073;82;30497;-68
2022/05/30 06:31:28;;;;;;;9.10;8.20;;;;;;;11.86;89.38;99682.31;1749466;81;25433;-68
2022/05/30 06:33:55;;;;;;;9.43;7.80;;;;;;;11.91;88.92;99688.34;1785760;79;27527;-67
2022/05/30 06:36:24;;;;;;;9.88;8.23;;;;;;;11.94;88.56;99688.25;1781891;79;25370;-67
2022/05/30 06:38:52;;;;;;;8.73;7.53;;;;;;;11.94;88.13;99683.61;1804103;77;25893;-68
2022/05/30 06:41:24;;;;;;;12.33;9.28;;;;;;;11.94;87.78;99687.68;1813176;79;26263;-68
2022/05/30 06:44:02;;;;;;;11.88;7.95;;;;;;;11.93;87.78;99686.08;1813694;79;25752;-68
2022/05/30 06:46:29;;;;;;;11.05;8.23;;;;;;;11.93;87.52;99680.66;1814229;79;27541;-68
2022/05/30 06:48:56;;;;;;;9.53;8.08;;;;;;;11.91;87.61;99684.84;1813932;78;25411;-67
2022/05/30 06:51:26;;;;;;;10.98;8.43;;;;;;;11.91;87.60;99688.34;1814099;78;25633;-68
2022/05/30 06:53:53;;;;;;;8.35;7.55;;;;;;;11.93;87.80;99690.14;1814049;78;25705;-67
2022/05/30 06:56:27;;;;;;;9.15;7.65;;;;;;;11.94;87.84;99687.68;1814143;78;25516;-67
2022/05/30 06:58:54;;;;;;;8.95;7.90;;;;;;;11.97;88.09;99683.53;1814191;79;27527;-67
2022/05/30 07:01:32;;;;;;;8.63;7.70;;;;;;;12.01;88.02;99680.94;1814180;78;25875;-67
2022/05/30 07:03:58;;;;;;;10.82;8.05;;;;;;;12.03;88.01;99682.75;1814202;78;25563;-67
2022/05/30 07:06:29;;;;;;;8.88;7.92;;;;;;;12.05;88.04;99683.98;1814195;79;25584;-67
2022/05/30 07:08:56;;;;;;;10.15;7.67;;;;;;;12.05;87.81;99681.84;1814155;78;25382;-68
2022/05/30 07:11:24;;;;;;;9.15;8.20;;;;;;;12.04;87.50;99681.06;1814438;78;28285;-67
2022/05/30 07:13:51;;;;;;;8.60;7.72;;;;;;;12.05;87.72;99677.78;1814175;79;25409;-68
2022/05/30 07:16:19;;;;;;;8.98;7.45;;;;;;;12.06;87.57;99681.52;1814213;78;25613;-67
2022/05/30 07:18:48;;;;;;;9.25;8.28;;;;;;;12.04;87.44;99676.21;1813870;78;25636;-68
2022/05/30 07:21:15;;;;;;;10.08;8.63;;;;;;;12.04;87.60;99675.64;1814400;78;33053;-68
2022/05/30 07:23:42;;;;;;;10.63;8.08;;;;;;;12.06;87.91;99678.02;1814291;78;28233;-68
2022/05/30 07:26:13;;;;;;;9.35;8.38;;;;;;;12.07;88.00;99676.33;1814155;79;25514;-67
2022/05/30 07:28:40;;;;;;;22.82;14.93;;;;;;;12.09;87.92;99674.65;1814379;78;25535;-67
2022/05/30 07:31:11;;;;;;;11.80;8.55;;;;;;;12.09;87.81;99678.14;1814253;78;25599;-67
2022/05/30 07:33:40;;;;;;;10.93;8.05;;;;;;;12.12;88.06;99676.67;1814383;79;25349;-68
2022/05/30 07:36:14;;;;;;;9.23;8.30;;;;;;;12.14;88.00;99677.15;1814393;79;27512;-67
2022/05/30 07:38:41;;;;;;;9.53;8.53;;;;;;;12.15;87.96;99678.14;1813869;78;25885;-68
2022/05/30 07:41:08;;;;;;;9.13;8.18;;;;;;;12.20;88.05;99677.72;1814161;78;26153;-67
2022/05/30 07:43:36;;;;;;;10.78;8.48;;;;;;;12.24;88.24;99675.38;1814055;78;25586;-67
2022/05/30 07:46:05;;;;;;;9.13;8.25;;;;;;;12.26;88.32;99674.47;1814167;78;25537;-68
2022/05/30 07:48:31;;;;;;;9.70;8.08;;;;;;;12.30;88.33;99679.44;1814143;78;26988;-68
2022/05/30 07:51:00;;;;;;;8.43;7.62;;;;;;;12.33;88.39;99676.06;1814093;78;25381;-68
2022/05/30 07:53:28;;;;;;;9.53;8.15;;;;;;;12.38;88.44;99675.61;1814136;78;25575;-68
2022/05/30 07:55:55;;;;;;;12.85;8.70;;;;;;;12.43;88.69;99671.31;1814110;78;25717;-68
2022/05/30 07:58:21;;;;;;;11.25;7.60;;;;;;;12.50;88.99;99667.52;1814098;78;25389;-68
2022/05/30 08:00:54;;;;;;;8.98;7.67;;;;;;;12.58;89.19;99669.88;1814164;79;27465;-68
2022/05/30 08:03:22;;;;;;;10.53;7.50;;;;;;;12.66;89.29;99663.56;1814106;79;25567;-67
2022/05/30 08:05:52;;;;;;;8.88;7.67;;;;;;;12.77;89.65;99662.00;1814249;78;25586;-69
2022/05/30 08:08:18;;;;;;;8.83;7.83;;;;;;;12.87;89.38;99659.38;1814608;79;25660;-68
2022/05/30 08:10:45;;;;;;;12.70;7.58;;;;;;;12.99;89.18;99668.89;1814632;78;25541;-68
2022/05/30 08:13:11;;;;;;;9.60;7.55;;;;;;;13.02;88.68;99655.19;1814295;79;27516;-68
2022/05/30 08:15:37;;;;;;;9.73;7.25;;;;;;;13.10;88.57;99659.72;1814244;79;25594;-68
2022/05/30 08:18:04;;;;;;;9.95;8.03;;;;;;;13.14;88.18;99657.89;1814363;78;25357;-69
2022/05/30 08:20:32;;;;;;;12.78;8.83;;;;;;;13.22;88.56;99662.41;1814073;79;25579;-68
2022/05/30 08:22:58;;;;;;;8.25;7.45;;;;;;;13.33;88.72;99660.06;1814339;78;25671;-69
2022/05/30 08:25:24;;;;;;;8.55;7.67;;;;;;;13.42;88.66;99670.80;1802967;79;27305;-69
2022/05/30 08:27:51;;;;;;;9.63;8.65;;;;;;;13.52;88.73;99674.94;1814116;78;25539;-69
2022/05/30 08:30:20;;;;;;;7.80;6.90;;;;;;;13.59;87.88;99672.45;1814466;79;25701;-69
2022/05/30 08:32:47;;;;;;;7.53;6.80;;;;;;;13.64;87.69;99666.20;1817118;78;26130;-67
2022/05/30 08:35:18;;;;;;;6.72;6.10;;;;;;;13.70;87.40;99669.45;1813963;79;25864;-69
2022/05/30 08:37:46;;;;;;;8.75;6.95;;;;;;;13.78;87.63;99663.67;1808496;78;27289;-67
2022/05/30 08:43:13;;;;;;;7.70;6.95;;;;;;;14.01;87.37;99670.14;1799187;79;25641;-68
2022/05/30 08:45:42;;;;;;;6.03;5.50;;;;;;;14.10;86.55;99661.05;1808636;78;26050;-67
2022/05/30 08:48:15;;;;;;;7.65;6.05;;;;;;;14.15;86.36;99667.02;1808803;78;25450;-68
2022/05/30 08:50:59;;;;;;;7.50;6.20;;;;;;;14.22;86.10;99667.77;1808476;79;27304;-68
2022/05/30 08:53:52;;;;;;;6.78;6.05;;;;;;;14.27;85.73;99665.34;1808591;79;25707;-68
2022/05/30 08:56:34;;;;;;;6.30;5.70;;;;;;;14.27;85.22;99664.80;1808483;79;25610;-68
2022/05/30 08:59:30;;;;;;;7.53;6.28;;;;;;;14.26;84.80;99667.28;1808676;79;25417;-69
2022/05/30 09:02:02;;;;;;;8.10;6.37;;;;;;;14.26;84.02;99665.14;1749258;81;25647;-68
2022/05/30 09:04:36;;;;;;;9.90;6.95;;;;;;;14.26;84.08;99668.64;1751426;81;28921;-66
2022/05/30 09:07:08;;;;;;;8.78;5.90;;;;;;;14.30;84.25;99664.10;1751525;81;25570;-67
2022/05/30 09:09:52;;;;;;;10.23;6.58;;;;;;;14.32;83.83;99665.90;1749132;81;25754;-67
2022/05/30 09:12:37;;;;;;;8.43;5.87;;;;;;;14.30;83.10;99668.73;1646454;86;25810;-68
2022/05/30 09:15:12;;;;;;;6.15;5.30;;;;;;;14.23;82.83;99666.61;1653904;85;25366;-68
2022/05/30 09:17:43;;;;;;;6.85;5.37;;;;;;;14.19;82.96;99663.80;1632330;86;27418;-68
2022/05/30 09:20:15;;;;;;;6.53;5.35;;;;;;;14.20;82.77;99667.34;1653585;86;25827;-67
2022/05/30 09:22:43;;;;;;;7.87;4.78;;;;;;;14.20;82.85;99667.34;1653906;86;25465;-67
2022/05/30 09:28:00;;;;;;;5.35;4.85;;;;;;;14.15;82.09;99671.67;1654193;86;25737;-66
2022/05/30 09:30:51;;;;;;;5.58;4.72;;;;;;;14.06;81.89;99673.16;1653864;85;27401;-66
2022/05/30 09:33:28;;;;;;;7.85;6.10;;;;;;;14.04;82.11;99681.45;1652870;86;25748;-67
2022/05/30 09:36:24;;;;;;;5.10;4.70;;;;;;;14.02;82.42;99681.80;1672665;83;25710;-67
2022/05/30 09:39:01;;;;;;;6.03;4.67;;;;;;;13.98;82.19;99681.70;1691380;82;26178;-67
2022/05/30 09:41:46;;;;;;;5.00;4.50;;;;;;;13.91;81.93;99678.80;1679734;85;25709;-67
2022/05/30 09:44:33;;;;;;;7.58;4.65;;;;;;;13.83;81.95;99672.36;1679721;85;27362;-67
2022/05/30 09:47:08;;;;;;;5.85;4.15;;;;;;;13.79;81.94;99670.66;1685042;82;25764;-67
2022/05/30 09:49:42;;;;;;;6.75;3.87;;;;;;;13.76;81.88;99677.59;1707231;81;25628;-67
2022/05/30 09:52:39;;;;;;;5.75;3.98;;;;;;;13.71;81.78;99670.27;1759918;81;25606;-67
2022/05/30 09:55:33;;;;;;;4.42;3.98;;;;;;;13.69;81.98;99669.80;1759864;81;25483;-67
2022/05/30 09:58:00;;;;;;;5.03;4.50;;;;;;;13.65;82.12;99673.77;1757178;81;27286;-67
2022/05/30 10:00:57;;;;;;;4.60;4.20;;;;;;;13.64;82.17;99681.14;1767489;80;25727;-66
2022/05/30 10:03:33;;;;;;;6.95;4.58;;;;;;;13.60;82.24;99676.19;1767126;80;25671;-66
2022/05/30 10:06:20;;;;;;;5.33;4.83;;;;;;;13.61;82.56;99679.11;1760017;80;25675;-66
2022/05/30 10:08:48;;;;;;;5.37;4.87;;;;;;;13.64;82.82;99679.00;1762610;81;25582;-67
2022/05/30 10:11:32;;;;;;;5.37;4.87;;;;;;;13.73;83.29;99678.86;1757070;81;27586;-67
2022/05/30 10:14:00;;;;;;;4.95;4.45;;;;;;;13.76;83.37;99683.03;1767413;80;25462;-66
2022/05/30 10:16:35;;;;;;;5.17;4.60;;;;;;;13.80;83.25;99681.20;1767355;81;25647;-66
2022/05/30 10:19:12;;;;;;;6.35;4.62;;;;;;;13.88;83.36;99675.41;1767640;81;26205;-66
2022/05/30 10:31:34;;;;;;;8.48;5.05;;;;;;;14.31;83.12;99679.27;1740132;81;25638;-67
2022/05/30 10:34:19;;;;;;;5.80;4.40;;;;;;;14.46;83.22;99679.66;1742913;82;25655;-66
2022/05/30 10:37:06;;;;;;;4.92;4.42;;;;;;;14.60;83.01;99687.41;1742625;82;25715;-66
2022/05/30 10:40:08;;;;;;;4.55;4.15;;;;;;;14.72;82.02;99688.10;1711631;83;27310;-67
2022/05/30 10:42:45;;;;;;;4.72;4.22;;;;;;;14.77;81.78;99689.00;1714094;83;25794;-66
2022/05/30 10:45:26;;;;;;;3.60;3.35;;;;;;;14.81;80.69;99693.36;1714271;83;25684;-67
2022/05/30 10:47:55;;;;;;;3.70;3.40;;;;;;;14.88;81.12;99698.19;1714092;83;27557;-66
2022/05/30 10:50:46;;;;;;;4.85;3.52;;;;;;;15.08;82.24;99697.70;1714335;83;25546;-66
2022/05/30 10:53:29;;;;;;;5.10;4.58;;;;;;;15.31;81.46;99698.63;1714313;83;27347;-66
2022/05/30 10:56:01;;;;;;;5.05;3.87;;;;;;;15.48;81.16;99700.75;1714215;83;25932;-68
2022/05/30 10:58:41;;;;;;;10.98;7.35;;;;;;;15.71;80.71;99703.55;1714180;83;25596;-66
2022/05/30 11:01:15;;;;;;;3.65;3.17;;;;;;;15.93;80.47;99703.45;1711850;83;25974;-67
2022/05/30 11:03:47;;;;;;;4.65;3.42;;;;;;;16.03;79.06;99707.55;1710137;83;25481;-66
2022/05/30 11:06:30;;;;;;;7.00;3.87;;;;;;;16.16;78.73;99706.83;1686888;83;27566;-66
2022/05/30 11:09:30;;;;;;;4.05;3.25;;;;;;;16.26;78.38;99711.70;1710612;83;25529;-66
2022/05/30 11:12:08;;;;;;;3.50;3.20;;;;;;;16.35;77.82;99714.98;1710954;83;26256;-66
2022/05/30 11:15:16;;;;;;;3.75;3.17;;;;;;;16.44;77.82;99715.52;1710639;83;25651;-66
2022/05/30 11:18:15;;;;;;;4.10;2.92;;;;;;;16.52;77.09;99711.58;1774827;80;25397;-67
2022/05/30 11:20:45;;;;;;;;;;;;;;;16.52;76.01;99714.31;1784680;77;28218;-66
2022/05/30 11:23:12;;;;;;;3.15;2.65;;;;;;;16.55;76.04;99719.02;1781561;79;25378;-66
2022/05/30 11:25:52;;;;;;;6.30;2.77;;;;;;;16.64;76.16;99715.48;1781780;77;25677;-66
2022/05/30 11:28:36;;;;;;;3.37;2.30;;;;;;;16.78;75.85;99710.25;1781858;79;25587;-66
2022/05/30 11:31:29;;;;;;;8.03;6.47;;;;;;;16.87;75.67;99718.23;1781998;79;25614;-66
2022/05/30 11:34:03;;;;;;;2.92;2.65;;;;;;;16.99;74.33;99717.25;1784959;79;27368;-66
2022/05/30 11:36:58;;;;;;;2.72;2.52;;;;;;;17.09;74.38;99717.21;1784400;80;25424;-66
2022/05/30 11:39:51;;;;;;;2.85;2.55;;;;;;;17.16;74.07;99711.84;1776749;80;25879;-66
2022/05/30 11:42:31;;;;;;;2.70;2.50;;;;;;;17.29;73.56;99715.17;1773382;80;26080;-67
2022/05/30 11:45:13;;;;;;;2.50;2.30;;;;;;;17.23;71.44;99719.37;1773329;80;25804;-66
2022/05/30 11:48:03;;;;;;;2.10;2.00;;;;;;;17.12;71.21;99715.89;1773553;80;27392;-66
2022/05/30 11:50:52;;;;;;;2.40;1.98;;;;;;;17.07;70.40;99714.84;1773336;80;25670;-65
2022/05/30 11:53:44;;;;;;;2.72;2.25;;;;;;;17.14;70.97;99716.31;1773576;80;25780;-67
2022/05/30 11:56:40;;;;;;;6.37;3.05;;;;;;;17.36;72.16;99713.31;1773854;80;25748;-67
2022/05/30 11:59:24;;;;;;;2.85;2.58;;;;;;;17.65;71.65;99714.30;1776472;79;25647;-67
2022/05/30 12:01:54;;;;;;;2.80;2.15;;;;;;;17.90;72.45;99710.55;1778894;80;27843;-68
2022/05/30 12:04:37;;;;;;;2.12;2.02;;;;;;;18.28;70.48;99711.34;1778451;80;25794;-69
2022/05/30 12:07:29;;;;;;;4.20;3.80;;;;;;;18.67;71.52;99713.09;1779107;80;25530;-69
2022/05/30 12:10:22;;;;;;;3.83;2.50;;;;;;;19.03;69.75;99712.63;1779202;80;25736;-67
2022/05/30 12:12:56;;;;;;;2.37;2.10;;;;;;;19.07;68.41;99718.94;1800458;79;25603;-68
2022/05/30 12:16:04;;;;;;;4.05;2.20;;;;;;;19.01;66.93;99718.48;1804772;79;27386;-68
2022/05/30 12:24:34;;;;;;;1.45;1.35;;;;;;;19.13;65.61;99724.25;1807968;79;25516;-68
2022/05/30 12:27:29;;;;;;;1.65;1.50;;;;;;;19.03;64.59;99726.33;1808403;79;25802;-68